Time;durP1;ratioP1;P1;durP2;ratioP2;P2;SDS_P1;SDS_P2;PMS_P1;PMS_P2;Temp;Humidity;BMP_temperature;BMP_pressure;BME280_temperature;BME280_humidity;BME280_pressure;Samples;Min_cycle;Max_cycle;Signal;HPM_P1;HPM_P2
2023/04/21 00:00:16;;;;;;;6.93;6.33;;;;;;;;;;5052155;28;20211;-88
2023/04/21 00:02:45;;;;;;;7.23;6.63;;;;;;;;;;5047025;28;20208;-87
2023/04/21 00:05:12;;;;;;;7.67;7.07;;;;;;;;;;5050163;28;20250;-88
2023/04/21 00:07:40;;;;;;;7.83;7.17;;;;;;;;;;5046550;28;20199;-88
2023/04/21 00:10:08;;;;;;;8.60;7.80;;;;;;;;;;5055292;28;20200;-88
2023/04/21 00:12:35;;;;;;;9.17;8.37;;;;;;;;;;5048937;28;20200;-88
2023/04/21 00:15:04;;;;;;;7.90;7.20;;;;;;;;;;5039089;28;20196;-88
2023/04/21 00:17:31;;;;;;;8.20;7.50;;;;;;;;;;5059174;28;20279;-88
2023/04/21 00:19:58;;;;;;;8.10;7.40;;;;;;;;;;5049056;28;20294;-88
2023/04/21 00:22:25;;;;;;;8.07;7.37;;;;;;;;;;5048562;28;20208;-88
2023/04/21 00:24:53;;;;;;;7.80;7.10;;;;;;;;;;5043542;28;20220;-87
2023/04/21 00:27:20;;;;;;;8.17;7.47;;;;;;;;;;5031293;28;20200;-88
2023/04/21 00:29:47;;;;;;;8.67;7.87;;;;;;;;;;5033229;28;20291;-87
2023/04/21 00:32:16;;;;;;;8.40;7.60;;;;;;;;;;5043626;28;20479;-88
2023/04/21 00:34:43;;;;;;;8.17;7.47;;;;;;;;;;5050516;28;20294;-88
2023/04/21 00:37:10;;;;;;;8.47;7.77;;;;;;;;;;5050464;28;20267;-87
2023/04/21 00:39:37;;;;;;;8.27;7.57;;;;;;;;;;5047071;28;20195;-88
2023/04/21 00:42:05;;;;;;;7.70;7.10;;;;;;;;;;5051040;28;20203;-87
2023/04/21 00:44:32;;;;;;;8.77;8.00;;;;;;;;;;5031844;28;20223;-87
2023/04/21 00:46:59;;;;;;;7.70;7.00;;;;;;;;;;5054714;28;20219;-87
2023/04/21 00:49:28;;;;;;;8.23;7.53;;;;;;;;;;5045805;28;20286;-88
2023/04/21 00:51:56;;;;;;;7.83;7.13;;;;;;;;;;5049084;28;20203;-87
2023/04/21 00:54:25;;;;;;;8.40;7.60;;;;;;;;;;5047054;28;20192;-87
2023/04/21 00:56:52;;;;;;;7.87;7.17;;;;;;;;;;5051969;28;20199;-87
2023/04/21 00:59:19;;;;;;;7.67;7.00;;;;;;;;;;5027962;28;20215;-87
2023/04/21 01:01:47;;;;;;;9.93;9.03;;;;;;;;;;5032476;28;20211;-88
2023/04/21 01:04:14;;;;;;;8.40;7.70;;;;;;;;;;5048906;28;20311;-88
2023/04/21 01:06:43;;;;;;;8.77;8.03;;;;;;;;;;5051948;28;20231;-87
2023/04/21 01:09:11;;;;;;;8.93;7.97;;;;;;;;;;5043114;28;20204;-88
2023/04/21 01:11:39;;;;;;;8.70;7.93;;;;;;;;;;5030948;28;20254;-88
2023/04/21 01:14:06;;;;;;;8.63;7.83;;;;;;;;;;5051908;28;20207;-87
2023/04/21 01:16:33;;;;;;;8.67;7.97;;;;;;;;;;5053471;28;20294;-88
2023/04/21 01:19:01;;;;;;;7.93;7.23;;;;;;;;;;5047880;28;20294;-88
2023/04/21 01:21:30;;;;;;;8.10;7.30;;;;;;;;;;5048192;28;20195;-88
2023/04/21 01:23:59;;;;;;;8.27;7.57;;;;;;;;;;5047348;28;20317;-88
2023/04/21 01:26:26;;;;;;;8.73;7.83;;;;;;;;;;5049319;28;20291;-88
2023/04/21 01:28:57;;;;;;;8.43;7.63;;;;;;;;;;5045353;28;20274;-87
2023/04/21 01:31:26;;;;;;;10.70;8.17;;;;;;;;;;5052449;28;20307;-88
2023/04/21 01:33:53;;;;;;;8.43;7.63;;;;;;;;;;5051967;28;20290;-88
2023/04/21 01:36:20;;;;;;;8.33;7.63;;;;;;;;;;5047980;28;20219;-88
2023/04/21 01:38:47;;;;;;;8.47;7.67;;;;;;;;;;5051293;28;20235;-88
2023/04/21 01:41:16;;;;;;;8.03;7.23;;;;;;;;;;5048871;28;20192;-88
2023/04/21 01:43:43;;;;;;;8.13;7.43;;;;;;;;;;5041262;28;20242;-88
2023/04/21 01:46:11;;;;;;;8.80;8.00;;;;;;;;;;5038307;28;20280;-87
2023/04/21 01:48:38;;;;;;;8.63;7.73;;;;;;;;;;5047943;28;20209;-88
2023/04/21 01:51:05;;;;;;;8.70;7.90;;;;;;;;;;5041098;28;20206;-88
2023/04/21 01:53:32;;;;;;;8.33;7.63;;;;;;;;;;5040704;28;20203;-88
2023/04/21 01:55:59;;;;;;;7.97;7.27;;;;;;;;;;5044507;28;20200;-88
2023/04/21 01:58:28;;;;;;;8.77;7.97;;;;;;;;;;5045694;28;20211;-88
2023/04/21 02:00:55;;;;;;;7.73;7.03;;;;;;;;;;5042928;28;20309;-88
2023/04/21 02:03:22;;;;;;;7.90;7.20;;;;;;;;;;5042566;28;20215;-87
2023/04/21 02:05:50;;;;;;;7.70;7.00;;;;;;;;;;5041671;28;20232;-87
2023/04/21 02:08:18;;;;;;;8.00;7.30;;;;;;;;;;5043180;28;20213;-88
2023/04/21 02:10:45;;;;;;;7.50;6.90;;;;;;;;;;5047975;28;20199;-87
2023/04/21 02:13:12;;;;;;;8.60;7.80;;;;;;;;;;5045410;28;20196;-87
2023/04/21 02:15:41;;;;;;;7.67;7.03;;;;;;;;;;5052216;28;20206;-88
2023/04/21 02:18:09;;;;;;;8.80;8.00;;;;;;;;;;5046981;28;20250;-88
2023/04/21 02:20:36;;;;;;;8.33;7.60;;;;;;;;;;5046990;28;20204;-88
2023/04/21 02:23:03;;;;;;;8.27;7.57;;;;;;;;;;5046886;28;20199;-88
2023/04/21 02:25:30;;;;;;;7.80;7.10;;;;;;;;;;5052003;28;20222;-88
2023/04/21 02:27:58;;;;;;;7.67;7.07;;;;;;;;;;5050181;28;20267;-88
2023/04/21 02:30:25;;;;;;;8.03;7.30;;;;;;;;;;5022684;28;20238;-88
2023/04/21 02:32:54;;;;;;;7.00;6.40;;;;;;;;;;5047100;28;20212;-88
2023/04/21 02:35:21;;;;;;;8.27;7.57;;;;;;;;;;5046261;28;20203;-88
2023/04/21 02:37:48;;;;;;;8.80;8.00;;;;;;;;;;5047072;28;20278;-88
2023/04/21 02:40:15;;;;;;;8.67;7.87;;;;;;;;;;5045982;28;20219;-87
2023/04/21 02:42:42;;;;;;;8.90;8.10;;;;;;;;;;5047477;28;20223;-88
2023/04/21 02:45:11;;;;;;;8.70;7.90;;;;;;;;;;5048417;28;20203;-88
2023/04/21 02:47:38;;;;;;;9.17;8.27;;;;;;;;;;5042120;28;20202;-87
2023/04/21 02:50:07;;;;;;;8.10;7.40;;;;;;;;;;5032078;28;20203;-88
2023/04/21 02:52:36;;;;;;;8.73;7.93;;;;;;;;;;5044385;28;20195;-87
2023/04/21 02:55:04;;;;;;;8.63;7.83;;;;;;;;;;5042502;28;20203;-87
2023/04/21 02:57:31;;;;;;;8.00;7.30;;;;;;;;;;5048749;28;20191;-87
2023/04/21 02:59:58;;;;;;;8.27;7.57;;;;;;;;;;5040321;28;20204;-88
2023/04/21 03:02:25;;;;;;;8.20;7.50;;;;;;;;;;5054523;28;20329;-88
2023/04/21 03:04:53;;;;;;;8.03;7.33;;;;;;;;;;5050346;28;20303;-87
2023/04/21 03:07:21;;;;;;;8.67;7.87;;;;;;;;;;5053761;28;20290;-88
2023/04/21 03:09:48;;;;;;;8.30;7.47;;;;;;;;;;5036832;28;20207;-88
2023/04/21 03:12:16;;;;;;;8.33;7.63;;;;;;;;;;5052601;28;20203;-88
2023/04/21 03:14:43;;;;;;;7.57;6.87;;;;;;;;;;5044926;28;20294;-88
2023/04/21 03:17:10;;;;;;;8.33;7.63;;;;;;;;;;5047340;28;20215;-88
2023/04/21 03:19:37;;;;;;;8.33;7.53;;;;;;;;;;5052801;28;20206;-88
2023/04/21 03:22:05;;;;;;;7.80;7.10;;;;;;;;;;5054447;28;20207;-88
2023/04/21 03:24:34;;;;;;;9.30;8.40;;;;;;;;;;5045507;28;20236;-88
2023/04/21 03:27:02;;;;;;;8.27;7.57;;;;;;;;;;5047376;28;20207;-88
2023/04/21 03:29:29;;;;;;;8.50;7.70;;;;;;;;;;5043793;28;20229;-88
2023/04/21 03:31:56;;;;;;;7.23;6.53;;;;;;;;;;5056405;28;20249;-88
2023/04/21 03:34:23;;;;;;;7.87;7.07;;;;;;;;;;5049203;28;20204;-87
2023/04/21 03:36:51;;;;;;;8.07;7.37;;;;;;;;;;5054096;28;20204;-88
2023/04/21 03:39:18;;;;;;;8.20;7.40;;;;;;;;;;5033008;28;20201;-88
2023/04/21 03:41:47;;;;;;;7.63;6.93;;;;;;;;;;5050863;28;20235;-87
2023/04/21 03:44:14;;;;;;;8.50;7.70;;;;;;;;;;5053028;28;20223;-88
2023/04/21 03:46:41;;;;;;;7.93;7.20;;;;;;;;;;5048401;28;20266;-88
2023/04/21 03:49:08;;;;;;;8.27;7.47;;;;;;;;;;5049029;28;20202;-88
2023/04/21 03:51:36;;;;;;;7.80;7.10;;;;;;;;;;5029403;28;20206;-87
2023/04/21 03:54:03;;;;;;;8.10;7.40;;;;;;;;;;5036363;28;20287;-88
2023/04/21 03:56:30;;;;;;;8.73;7.93;;;;;;;;;;5054294;28;20220;-88
2023/04/21 03:58:59;;;;;;;7.83;7.13;;;;;;;;;;5056312;28;20275;-88
2023/04/21 04:01:26;;;;;;;8.13;7.43;;;;;;;;;;5054364;28;20199;-88
2023/04/21 04:03:54;;;;;;;8.87;8.07;;;;;;;;;;5055453;28;20203;-88
2023/04/21 04:06:21;;;;;;;8.57;7.77;;;;;;;;;;5050994;28;20232;-87
2023/04/21 04:08:48;;;;;;;9.20;8.30;;;;;;;;;;5053586;28;20192;-88
2023/04/21 04:11:15;;;;;;;8.70;7.90;;;;;;;;;;5035561;28;20236;-88
2023/04/21 04:13:42;;;;;;;9.60;8.70;;;;;;;;;;5044466;28;20191;-88
2023/04/21 04:16:11;;;;;;;9.63;8.73;;;;;;;;;;5048616;28;20207;-88
2023/04/21 04:18:39;;;;;;;10.03;9.03;;;;;;;;;;5051919;28;20264;-88
2023/04/21 04:21:07;;;;;;;9.80;8.90;;;;;;;;;;5047867;28;20197;-88
2023/04/21 04:23:34;;;;;;;8.87;8.07;;;;;;;;;;5048909;28;20206;-88
2023/04/21 04:26:04;;;;;;;8.60;7.70;;;;;;;;;;5050763;28;20238;-88
2023/04/21 04:28:32;;;;;;;9.03;8.20;;;;;;;;;;5050891;28;20235;-87
2023/04/21 04:31:01;;;;;;;9.13;8.30;;;;;;;;;;5045647;28;20201;-88
2023/04/21 04:33:30;;;;;;;9.13;8.33;;;;;;;;;;5050017;28;20196;-88
2023/04/21 04:35:58;;;;;;;10.50;9.50;;;;;;;;;;5040919;28;20211;-87
2023/04/21 04:38:27;;;;;;;10.20;9.23;;;;;;;;;;5025525;28;20215;-87
2023/04/21 04:40:56;;;;;;;9.47;8.57;;;;;;;;;;5046376;28;20204;-87
2023/04/21 04:43:24;;;;;;;9.53;8.67;;;;;;;;;;5047592;28;20236;-88
2023/04/21 04:45:51;;;;;;;10.47;9.47;;;;;;;;;;5047372;28;20231;-88
2023/04/21 04:48:18;;;;;;;8.97;8.17;;;;;;;;;;5049623;28;20196;-88
2023/04/21 04:50:47;;;;;;;9.27;8.23;;;;;;;;;;5042908;28;20209;-88
2023/04/21 04:53:14;;;;;;;9.33;8.37;;;;;;;;;;5040311;28;20223;-89
2023/04/21 04:55:42;;;;;;;9.43;8.53;;;;;;;;;;5053396;28;20196;-89
2023/04/21 04:58:09;;;;;;;10.70;9.70;;;;;;;;;;5045952;28;20291;-89
2023/04/21 05:00:36;;;;;;;9.50;8.60;;;;;;;;;;5052232;28;20222;-87
2023/04/21 05:03:03;;;;;;;9.10;8.30;;;;;;;;;;5050436;28;20203;-86
2023/04/21 05:05:31;;;;;;;8.70;7.90;;;;;;;;;;5044411;28;20298;-89
2023/04/21 05:08:00;;;;;;;8.50;7.70;;;;;;;;;;5030591;28;20286;-88
2023/04/21 05:10:27;;;;;;;9.23;8.43;;;;;;;;;;5042427;28;20204;-87
2023/04/21 05:12:54;;;;;;;8.37;7.67;;;;;;;;;;5044069;28;20198;-87
2023/04/21 05:15:22;;;;;;;9.33;8.27;;;;;;;;;;5047932;28;20290;-86
2023/04/21 05:17:49;;;;;;;8.47;7.67;;;;;;;;;;5052238;28;20203;-87
2023/04/21 05:20:16;;;;;;;8.67;7.87;;;;;;;;;;5051236;28;20226;-86
2023/04/21 05:22:44;;;;;;;8.43;7.73;;;;;;;;;;5045195;28;20227;-88
2023/04/21 05:25:14;;;;;;;7.67;6.80;;;;;;;;;;5046356;28;20216;-87
2023/04/21 05:27:41;;;;;;;8.93;8.03;;;;;;;;;;5050294;28;20211;-88
2023/04/21 05:30:09;;;;;;;8.23;7.53;;;;;;;;;;5045328;28;20199;-89
2023/04/21 05:32:36;;;;;;;7.83;7.13;;;;;;;;;;5048797;28;20271;-88
2023/04/21 05:35:04;;;;;;;9.20;8.30;;;;;;;;;;5051508;28;20231;-88
2023/04/21 05:37:31;;;;;;;10.67;9.67;;;;;;;;;;5043395;28;20200;-87
2023/04/21 05:39:58;;;;;;;9.57;8.67;;;;;;;;;;5050976;28;20589;-88
2023/04/21 05:42:28;;;;;;;9.90;8.97;;;;;;;;;;5045355;28;20314;-88
2023/04/21 05:44:55;;;;;;;9.67;8.73;;;;;;;;;;5029874;28;20200;-88
2023/04/21 05:47:23;;;;;;;10.43;9.43;;;;;;;;;;5024461;28;20287;-86
2023/04/21 05:49:52;;;;;;;9.87;8.97;;;;;;;;;;5045544;28;20357;-87
2023/04/21 05:52:20;;;;;;;10.23;9.03;;;;;;;;;;5047367;28;20203;-86
2023/04/21 05:54:48;;;;;;;10.00;9.10;;;;;;;;;;5041723;28;20204;-87
2023/04/21 05:57:16;;;;;;;8.87;8.07;;;;;;;;;;5044764;28;20199;-87
2023/04/21 05:59:45;;;;;;;9.27;8.47;;;;;;;;;;5050968;28;20200;-87
2023/04/21 06:02:13;;;;;;;8.80;8.00;;;;;;;;;;5039312;28;20219;-87
2023/04/21 06:04:40;;;;;;;9.43;8.53;;;;;;;;;;5026512;28;20212;-87
2023/04/21 06:07:08;;;;;;;9.67;8.80;;;;;;;;;;5048865;28;20216;-87
2023/04/21 06:09:36;;;;;;;9.47;8.57;;;;;;;;;;5044362;28;20282;-86
2023/04/21 06:12:03;;;;;;;8.57;7.77;;;;;;;;;;5031401;28;20212;-87
2023/04/21 06:14:30;;;;;;;8.77;7.97;;;;;;;;;;5038523;28;20249;-87
2023/04/21 06:17:00;;;;;;;9.53;8.60;;;;;;;;;;5047046;28;20283;-88
2023/04/21 06:19:29;;;;;;;9.17;8.27;;;;;;;;;;5047776;28;20214;-87
2023/04/21 06:21:58;;;;;;;8.80;7.90;;;;;;;;;;5031455;28;20261;-88
2023/04/21 06:24:25;;;;;;;9.33;8.43;;;;;;;;;;5023867;28;20257;-87
2023/04/21 06:26:53;;;;;;;10.63;8.60;;;;;;;;;;5042754;28;20218;-88
2023/04/21 06:29:20;;;;;;;9.43;8.57;;;;;;;;;;5044057;28;20224;-88
2023/04/21 06:31:47;;;;;;;9.43;8.53;;;;;;;;;;5050649;28;20207;-87
2023/04/21 06:34:16;;;;;;;9.43;8.53;;;;;;;;;;5045333;28;20191;-88
2023/04/21 06:36:44;;;;;;;9.83;8.93;;;;;;;;;;5024828;28;20199;-87
2023/04/21 06:39:11;;;;;;;9.60;8.67;;;;;;;;;;5045737;28;20211;-90
2023/04/21 06:41:38;;;;;;;8.97;8.17;;;;;;;;;;5041824;28;20219;-89
2023/04/21 06:44:05;;;;;;;9.27;8.47;;;;;;;;;;5045612;28;20284;-88
2023/04/21 06:46:35;;;;;;;8.40;7.70;;;;;;;;;;5044448;28;20302;-88
2023/04/21 06:49:03;;;;;;;9.63;8.73;;;;;;;;;;5043052;28;20199;-88
2023/04/21 06:51:32;;;;;;;8.83;8.00;;;;;;;;;;5046590;28;20208;-88
2023/04/21 06:53:59;;;;;;;9.53;8.67;;;;;;;;;;5038876;28;20246;-88
2023/04/21 06:56:27;;;;;;;9.33;8.43;;;;;;;;;;5028331;28;20230;-89
2023/04/21 06:58:55;;;;;;;8.80;8.00;;;;;;;;;;5044584;28;20208;-88
2023/04/21 07:01:23;;;;;;;8.43;7.70;;;;;;;;;;5039655;28;20222;-89
2023/04/21 07:03:50;;;;;;;9.13;8.00;;;;;;;;;;5043266;28;20233;-88
2023/04/21 07:06:17;;;;;;;9.43;8.63;;;;;;;;;;5045179;28;20257;-89
2023/04/21 07:08:46;;;;;;;8.93;8.13;;;;;;;;;;5012696;28;20200;-88
2023/04/21 07:11:14;;;;;;;8.33;7.60;;;;;;;;;;5043062;28;20208;-88
2023/04/21 07:13:41;;;;;;;8.57;7.80;;;;;;;;;;5050613;28;20203;-87
2023/04/21 07:16:09;;;;;;;8.13;7.43;;;;;;;;;;5045848;28;20209;-88
2023/04/21 07:18:37;;;;;;;7.47;6.77;;;;;;;;;;5048135;28;20195;-88
2023/04/21 07:21:06;;;;;;;7.73;7.03;;;;;;;;;;5048158;28;20203;-88
2023/04/21 07:23:34;;;;;;;7.60;6.90;;;;;;;;;;5039757;28;20203;-88
2023/04/21 07:26:03;;;;;;;7.00;6.40;;;;;;;;;;5054246;28;20323;-88
2023/04/21 07:28:30;;;;;;;7.00;6.40;;;;;;;;;;5041841;28;20225;-88
2023/04/21 07:30:57;;;;;;;7.70;7.00;;;;;;;;;;5043976;28;20211;-88
2023/04/21 07:33:25;;;;;;;7.23;6.63;;;;;;;;;;5036723;28;20208;-88
2023/04/21 07:35:52;;;;;;;7.10;6.50;;;;;;;;;;5038218;28;20203;-88
2023/04/21 07:38:19;;;;;;;7.33;6.63;;;;;;;;;;5046226;28;20195;-88
2023/04/21 07:40:46;;;;;;;7.40;6.80;;;;;;;;;;5038988;28;20197;-88
2023/04/21 07:43:15;;;;;;;7.20;6.50;;;;;;;;;;5044223;28;20240;-88
2023/04/21 07:45:44;;;;;;;6.80;6.20;;;;;;;;;;5049249;28;20209;-88
2023/04/21 07:48:11;;;;;;;6.90;6.40;;;;;;;;;;5043348;28;20202;-88
2023/04/21 07:50:38;;;;;;;7.13;6.40;;;;;;;;;;5042047;28;20211;-87
2023/04/21 07:53:06;;;;;;;6.67;6.10;;;;;;;;;;5042952;28;20250;-88
2023/04/21 07:55:35;;;;;;;7.13;6.53;;;;;;;;;;5049412;28;20204;-88
2023/04/21 07:58:03;;;;;;;6.93;6.37;;;;;;;;;;5048388;28;20238;-88
2023/04/21 08:00:31;;;;;;;7.43;6.73;;;;;;;;;;5027483;28;20219;-88
2023/04/21 08:02:59;;;;;;;8.17;7.47;;;;;;;;;;5031769;28;20305;-87
2023/04/21 08:05:26;;;;;;;8.77;7.97;;;;;;;;;;5045198;28;20223;-88
2023/04/21 08:07:53;;;;;;;8.27;7.57;;;;;;;;;;5045896;28;20227;-88
2023/04/21 08:10:21;;;;;;;7.80;7.10;;;;;;;;;;5041425;28;20242;-88
2023/04/21 08:12:48;;;;;;;8.20;7.40;;;;;;;;;;5053435;28;20267;-88
2023/04/21 08:15:15;;;;;;;8.00;7.30;;;;;;;;;;5049864;28;20210;-88
2023/04/21 08:17:44;;;;;;;7.97;7.27;;;;;;;;;;5037233;28;20195;-88
2023/04/21 08:20:12;;;;;;;7.97;7.27;;;;;;;;;;5047989;28;20203;-88
2023/04/21 08:22:39;;;;;;;7.00;6.40;;;;;;;;;;5044857;28;20291;-88
2023/04/21 08:25:07;;;;;;;7.83;7.13;;;;;;;;;;5036964;28;20200;-88
2023/04/21 08:27:34;;;;;;;6.97;6.40;;;;;;;;;;5025660;28;20228;-88
2023/04/21 08:30:01;;;;;;;6.57;6.07;;;;;;;;;;5046256;28;20204;-88
2023/04/21 08:32:29;;;;;;;7.03;6.43;;;;;;;;;;5048750;28;20203;-88
2023/04/21 08:34:57;;;;;;;6.73;6.20;;;;;;;;;;5047195;28;20240;-88
2023/04/21 08:37:24;;;;;;;7.57;6.90;;;;;;;;;;5043674;28;20208;-88
2023/04/21 08:39:53;;;;;;;7.40;6.70;;;;;;;;;;5054615;28;20213;-88
2023/04/21 08:42:20;;;;;;;6.80;6.20;;;;;;;;;;5048987;28;20296;-88
2023/04/21 08:44:47;;;;;;;6.67;6.07;;;;;;;;;;5035269;28;20311;-88
2023/04/21 08:47:15;;;;;;;6.60;6.10;;;;;;;;;;5028461;28;20220;-88
2023/04/21 08:49:44;;;;;;;7.47;6.70;;;;;;;;;;5052024;28;20210;-87
2023/04/21 08:52:14;;;;;;;6.90;6.40;;;;;;;;;;5045591;28;20215;-88
2023/04/21 08:54:41;;;;;;;6.63;6.10;;;;;;;;;;5045649;28;20208;-88
2023/04/21 08:57:08;;;;;;;6.37;5.87;;;;;;;;;;5042576;28;20200;-88
2023/04/21 08:59:36;;;;;;;7.67;6.97;;;;;;;;;;5040730;28;20238;-88
2023/04/21 09:02:10;;;;;;;6.87;6.20;;;;;;;;;;5043608;28;20196;-88
2023/04/21 09:04:38;;;;;;;6.77;6.27;;;;;;;;;;5048002;28;20239;-88
2023/04/21 09:07:07;;;;;;;7.03;6.50;;;;;;;;;;5046458;28;20219;-88
2023/04/21 09:09:51;;;;;;;6.63;6.03;;;;;;;;;;5049884;28;20214;-88
2023/04/21 09:12:19;;;;;;;5.73;5.17;;;;;;;;;;5044493;28;20327;-88
2023/04/21 09:14:46;;;;;;;5.40;5.00;;;;;;;;;;5046241;28;20203;-88
2023/04/21 09:17:15;;;;;;;4.97;4.57;;;;;;;;;;5037601;28;20287;-88
2023/04/21 09:19:43;;;;;;;4.60;4.30;;;;;;;;;;5042824;28;20203;-88
2023/04/21 09:22:10;;;;;;;4.70;4.07;;;;;;;;;;5041743;28;20290;-88
2023/04/21 09:24:45;;;;;;;4.55;4.22;;;;;;;;;;5045706;28;20204;-88
2023/04/21 09:27:12;;;;;;;4.10;3.80;;;;;;;;;;5049846;28;20227;-88
2023/04/21 09:29:46;;;;;;;4.20;3.80;;;;;;;;;;5038263;28;20208;-88
2023/04/21 09:32:17;;;;;;;4.68;4.28;;;;;;;;;;5039347;28;20197;-89
2023/04/21 09:34:44;;;;;;;4.60;4.20;;;;;;;;;;5023736;28;20211;-87
2023/04/21 09:37:13;;;;;;;3.70;3.40;;;;;;;;;;5043193;28;20291;-87
2023/04/21 09:39:45;;;;;;;3.53;3.22;;;;;;;;;;5047504;28;20199;-87
2023/04/21 09:42:12;;;;;;;3.30;3.05;;;;;;;;;;5039452;28;20203;-87
2023/04/21 09:44:40;;;;;;;3.63;3.38;;;;;;;;;;5045155;28;20200;-87
2023/04/21 09:47:11;;;;;;;3.47;3.22;;;;;;;;;;5043426;28;20236;-87
2023/04/21 09:49:43;;;;;;;4.00;3.67;;;;;;;;;;5041005;28;20200;-87
2023/04/21 09:52:11;;;;;;;4.00;3.60;;;;;;;;;;5043917;28;20211;-88
2023/04/21 09:54:45;;;;;;;3.63;3.33;;;;;;;;;;5046391;28;20219;-88
2023/04/21 09:57:22;;;;;;;5.35;3.28;;;;;;;;;;5042495;28;20211;-88
2023/04/21 09:59:57;;;;;;;3.90;3.60;;;;;;;;;;5020663;28;20204;-88
2023/04/21 10:02:28;;;;;;;3.30;3.10;;;;;;;;;;5041239;28;20203;-89
2023/04/21 10:04:56;;;;;;;3.60;3.30;;;;;;;;;;5041005;28;20202;-88
2023/04/21 10:07:23;;;;;;;3.45;3.20;;;;;;;;;;5045401;28;20219;-88
2023/04/21 10:09:53;;;;;;;4.25;3.95;;;;;;;;;;5026351;28;20279;-88
2023/04/21 10:12:22;;;;;;;3.80;3.50;;;;;;;;;;5046305;28;20204;-88
2023/04/21 10:14:52;;;;;;;3.60;3.40;;;;;;;;;;5036259;28;20196;-88
2023/04/21 10:17:23;;;;;;;3.75;3.45;;;;;;;;;;5047246;28;20215;-88
2023/04/21 10:19:51;;;;;;;4.22;3.63;;;;;;;;;;5041195;28;20327;-88
2023/04/21 10:22:27;;;;;;;3.70;3.40;;;;;;;;;;5043584;28;20258;-88
2023/04/21 10:24:56;;;;;;;3.72;3.45;;;;;;;;;;5040062;28;20200;-88
2023/04/21 10:27:33;;;;;;;3.80;3.50;;;;;;;;;;5044051;28;20224;-88
2023/04/21 10:30:01;;;;;;;3.15;2.95;;;;;;;;;;5042457;28;20241;-87
2023/04/21 10:32:41;;;;;;;3.00;2.80;;;;;;;;;;5025799;28;20222;-89
2023/04/21 10:35:11;;;;;;;2.80;2.50;;;;;;;;;;5039000;28;20207;-88
2023/04/21 10:37:38;;;;;;;3.05;2.70;;;;;;;;;;5043443;28;20207;-88
2023/04/21 10:40:09;;;;;;;3.10;2.80;;;;;;;;;;5039542;28;20254;-89
2023/04/21 10:42:37;;;;;;;3.03;2.83;;;;;;;;;;5037916;28;20240;-88
2023/04/21 10:45:09;;;;;;;2.88;2.67;;;;;;;;;;5046938;28;20286;-88
2023/04/21 10:47:37;;;;;;;2.88;2.67;;;;;;;;;;5036607;28;20266;-88
2023/04/21 10:50:15;;;;;;;2.90;2.70;;;;;;;;;;5050171;28;20207;-88
2023/04/21 10:52:46;;;;;;;2.92;2.72;;;;;;;;;;5035390;28;20283;-88
2023/04/21 10:55:15;;;;;;;3.63;2.72;;;;;;;;;;5024584;28;20253;-88
2023/04/21 10:57:45;;;;;;;3.33;3.05;;;;;;;;;;5045557;28;20209;-89
2023/04/21 11:00:16;;;;;;;3.85;3.05;;;;;;;;;;5050305;28;20202;-88
2023/04/21 11:02:44;;;;;;;3.38;3.17;;;;;;;;;;5027866;28;20208;-88
2023/04/21 11:05:11;;;;;;;3.15;2.95;;;;;;;;;;5051210;28;20192;-89
2023/04/21 11:07:39;;;;;;;3.20;3.00;;;;;;;;;;5044350;28;20246;-88
2023/04/21 11:10:07;;;;;;;3.03;2.83;;;;;;;;;;5051095;28;20203;-88
2023/04/21 11:12:35;;;;;;;3.10;2.55;;;;;;;;;;5050308;28;20287;-88
2023/04/21 11:15:07;;;;;;;2.78;2.58;;;;;;;;;;5040021;28;20207;-87
2023/04/21 11:17:34;;;;;;;4.50;2.58;;;;;;;;;;5037734;28;20203;-89
2023/04/21 11:20:05;;;;;;;2.85;2.65;;;;;;;;;;5040262;28;20215;-89
2023/04/21 11:22:32;;;;;;;3.00;2.80;;;;;;;;;;5045478;28;20241;-89
2023/04/21 11:25:00;;;;;;;4.72;2.40;;;;;;;;;;5048423;28;20202;-87
2023/04/21 11:27:29;;;;;;;2.42;2.22;;;;;;;;;;5041967;28;20215;-87
2023/04/21 11:29:57;;;;;;;3.38;2.40;;;;;;;;;;5049243;28;20281;-87
2023/04/21 11:32:28;;;;;;;2.60;2.35;;;;;;;;;;5047682;28;20211;-86
2023/04/21 11:34:55;;;;;;;2.83;2.63;;;;;;;;;;5040877;28;20217;-86
2023/04/21 11:37:24;;;;;;;3.08;2.80;;;;;;;;;;5044444;28;20285;-87
2023/04/21 11:39:57;;;;;;;2.40;2.20;;;;;;;;;;5041070;28;20208;-87
2023/04/21 11:42:25;;;;;;;2.25;2.15;;;;;;;;;;5044153;28;20332;-86
2023/04/21 11:44:55;;;;;;;2.50;2.30;;;;;;;;;;5048554;28;20201;-86
2023/04/21 11:47:24;;;;;;;2.70;2.50;;;;;;;;;;5042472;28;20246;-87
2023/04/21 11:49:54;;;;;;;2.50;2.30;;;;;;;;;;5043554;28;20211;-86
2023/04/21 11:52:26;;;;;;;2.33;2.13;;;;;;;;;;5047449;28;20214;-86
2023/04/21 11:54:57;;;;;;;2.17;1.67;;;;;;;;;;5042957;28;20196;-87
2023/04/21 11:57:25;;;;;;;2.42;2.22;;;;;;;;;;5045489;28;20222;-87
2023/04/21 11:59:52;;;;;;;1.98;1.80;;;;;;;;;;5044459;28;20203;-87
2023/04/21 12:02:25;;;;;;;1.98;1.88;;;;;;;;;;5024982;28;20233;-87
2023/04/21 12:05:00;;;;;;;1.90;1.80;;;;;;;;;;5046338;28;20235;-87
2023/04/21 12:07:29;;;;;;;1.90;1.80;;;;;;;;;;5054220;28;20332;-87
2023/04/21 12:09:57;;;;;;;2.03;1.85;;;;;;;;;;5046228;28;20199;-87
2023/04/21 12:12:25;;;;;;;1.83;1.70;;;;;;;;;;5026924;28;20227;-87
2023/04/21 12:14:53;;;;;;;1.85;1.75;;;;;;;;;;5048348;28;20207;-87
2023/04/21 12:17:20;;;;;;;1.83;1.73;;;;;;;;;;5056410;28;20200;-87
2023/04/21 12:19:48;;;;;;;3.30;1.75;;;;;;;;;;5055073;28;20199;-87
2023/04/21 12:22:18;;;;;;;2.05;1.75;;;;;;;;;;5040701;28;20200;-87
2023/04/21 12:24:46;;;;;;;1.90;1.80;;;;;;;;;;5044684;28;20216;-87
2023/04/21 12:27:13;;;;;;;1.88;1.77;;;;;;;;;;5054347;28;20273;-87
2023/04/21 12:29:41;;;;;;;2.05;1.80;;;;;;;;;;5043558;28;20200;-86
2023/04/21 12:32:09;;;;;;;1.90;1.80;;;;;;;;;;5045910;28;20208;-87
2023/04/21 12:34:36;;;;;;;2.10;1.80;;;;;;;;;;5051049;28;20210;-86
2023/04/21 12:37:04;;;;;;;1.40;1.40;;;;;;;;;;5060832;28;20281;-91
2023/04/21 12:39:33;;;;;;;2.25;2.03;;;;;;;;;;5051657;28;20295;-89
2023/04/21 12:42:01;;;;;;;1.90;1.77;;;;;;;;;;5048983;28;20211;-88
2023/04/21 12:44:29;;;;;;;1.70;1.60;;;;;;;;;;5048018;28;20203;-94
2023/04/21 12:46:57;;;;;;;2.08;1.60;;;;;;;;;;5050113;28;20199;-89
2023/04/21 12:49:24;;;;;;;1.70;1.60;;;;;;;;;;5048955;28;20207;-88
2023/04/21 12:51:51;;;;;;;2.00;1.90;;;;;;;;;;5055841;28;20199;-88
2023/04/21 12:54:18;;;;;;;1.80;1.70;;;;;;;;;;5050171;28;20200;-87
2023/04/21 12:56:47;;;;;;;1.92;1.83;;;;;;;;;;5032350;28;20211;-88
2023/04/21 12:59:15;;;;;;;1.83;1.73;;;;;;;;;;5051198;28;20199;-89
2023/04/21 13:01:42;;;;;;;5.65;2.20;;;;;;;;;;5048358;28;20201;-91
2023/04/21 13:04:10;;;;;;;1.80;1.70;;;;;;;;;;5045448;28;20208;-88
2023/04/21 13:06:38;;;;;;;1.80;1.70;;;;;;;;;;5050426;28;20203;-87
2023/04/21 13:09:06;;;;;;;1.80;1.70;;;;;;;;;;5052214;28;20299;-91
2023/04/21 13:11:33;;;;;;;1.88;1.77;;;;;;;;;;5046728;28;20196;-87
2023/04/21 13:14:03;;;;;;;2.00;1.80;;;;;;;;;;5046001;28;20234;-86
2023/04/21 13:16:30;;;;;;;26.48;2.85;;;;;;;;;;5047685;28;20208;-88
2023/04/21 13:18:58;;;;;;;9.70;2.42;;;;;;;;;;5049683;28;20202;-87
2023/04/21 13:21:25;;;;;;;4.03;1.50;;;;;;;;;;5041295;28;20211;-87
2023/04/21 13:23:52;;;;;;;2.30;1.70;;;;;;;;;;5030384;28;20202;-86
2023/04/21 13:26:19;;;;;;;1.70;1.60;;;;;;;;;;5042405;28;20200;-90
2023/04/21 13:28:47;;;;;;;2.35;1.50;;;;;;;;;;5046110;28;20249;-87
2023/04/21 13:31:16;;;;;;;1.70;1.60;;;;;;;;;;5030407;28;20314;-88
2023/04/21 13:33:43;;;;;;;2.08;1.88;;;;;;;;;;5046152;28;20223;-87
2023/04/21 13:36:11;;;;;;;1.63;1.52;;;;;;;;;;5048226;28;20283;-87
2023/04/21 13:38:39;;;;;;;1.83;1.70;;;;;;;;;;5048421;28;20271;-87
2023/04/21 13:41:07;;;;;;;1.30;1.25;;;;;;;;;;5023083;28;20231;-87
2023/04/21 13:43:34;;;;;;;1.00;1.00;;;;;;;;;;5033351;28;20236;-89
2023/04/21 13:46:01;;;;;;;1.75;1.10;;;;;;;;;;5021488;28;20207;-88
2023/04/21 13:48:30;;;;;;;1.02;1.02;;;;;;;;;;5047426;28;20322;-90
2023/04/21 13:50:57;;;;;;;1.50;1.30;;;;;;;;;;5039858;28;20208;-89
2023/04/21 13:53:25;;;;;;;1.73;1.10;;;;;;;;;;5041157;28;20203;-89
2023/04/21 13:55:53;;;;;;;1.15;1.15;;;;;;;;;;5049176;28;20195;-89
2023/04/21 13:58:20;;;;;;;1.05;1.05;;;;;;;;;;5047882;28;20199;-88
2023/04/21 14:00:48;;;;;;;1.10;1.00;;;;;;;;;;5046938;28;20207;-89
2023/04/21 14:03:15;;;;;;;0.98;0.98;;;;;;;;;;5047672;28;20208;-89
2023/04/21 14:05:44;;;;;;;1.05;0.98;;;;;;;;;;5045164;28;20258;-88
2023/04/21 14:08:11;;;;;;;1.45;1.20;;;;;;;;;;5048351;28;20219;-88
2023/04/21 14:10:39;;;;;;;1.10;1.10;;;;;;;;;;5048632;28;20205;-89
2023/04/21 14:13:06;;;;;;;1.20;1.20;;;;;;;;;;5046455;28;20211;-87
2023/04/21 14:15:34;;;;;;;1.20;1.20;;;;;;;;;;5039995;28;20203;-87
2023/04/21 14:18:01;;;;;;;2.30;1.55;;;;;;;;;;5038364;28;20200;-87
2023/04/21 14:20:29;;;;;;;1.20;1.20;;;;;;;;;;5037943;28;20204;-87
2023/04/21 14:22:57;;;;;;;1.42;1.30;;;;;;;;;;5038276;28;20231;-87
2023/04/21 14:25:25;;;;;;;1.05;1.05;;;;;;;;;;5046539;28;20264;-87
2023/04/21 14:27:52;;;;;;;1.40;1.30;;;;;;;;;;5020793;28;20306;-89
2023/04/21 14:30:19;;;;;;;1.42;1.33;;;;;;;;;;5041031;28;20265;-87
2023/04/21 14:32:47;;;;;;;1.48;1.38;;;;;;;;;;5041881;28;20235;-92
2023/04/21 14:35:14;;;;;;;1.50;1.40;;;;;;;;;;5049336;28;20207;-88
2023/04/21 14:37:42;;;;;;;1.40;1.30;;;;;;;;;;5043700;28;20210;-89
2023/04/21 14:40:12;;;;;;;1.55;1.45;;;;;;;;;;5049163;28;20215;-87
2023/04/21 14:42:40;;;;;;;1.83;1.52;;;;;;;;;;5031720;28;20286;-90
2023/04/21 14:45:08;;;;;;;1.50;1.40;;;;;;;;;;5050116;28;20295;-87
2023/04/21 14:47:35;;;;;;;1.20;1.10;;;;;;;;;;5038578;28;20286;-87